sensor_id;sensor_type;location;lat;lon;timestamp;P1;durP1;ratioP1;P2;durP2;ratioP2
20995;SDS011;10656;52.200;21.052;2024-02-04T00:20:13;4.23;;;2.30;;
20995;SDS011;10656;52.200;21.052;2024-02-04T00:35:40;5.83;;;2.50;;
20995;SDS011;10656;52.200;21.052;2024-02-04T00:56:00;7.40;;;2.73;;
20995;SDS011;10656;52.200;21.052;2024-02-04T01:36:34;8.83;;;3.10;;
20995;SDS011;10656;52.200;21.052;2024-02-04T02:01:29;8.80;;;3.53;;
20995;SDS011;10656;52.200;21.052;2024-02-04T02:21:59;10.60;;;3.30;;
20995;SDS011;10656;52.200;21.052;2024-02-04T02:52:05;5.67;;;3.10;;
20995;SDS011;10656;52.200;21.052;2024-02-04T03:12:51;8.37;;;3.30;;
20995;SDS011;10656;52.200;21.052;2024-02-04T03:38:21;9.10;;;3.03;;
20995;SDS011;10656;52.200;21.052;2024-02-04T04:03:16;9.33;;;2.73;;
20995;SDS011;10656;52.200;21.052;2024-02-04T04:08:37;5.87;;;2.63;;
20995;SDS011;10656;52.200;21.052;2024-02-04T04:39:00;5.37;;;2.40;;
20995;SDS011;10656;52.200;21.052;2024-02-04T05:29:43;2.77;;;1.97;;
20995;SDS011;10656;52.200;21.052;2024-02-04T06:05:03;6.47;;;2.57;;
20995;SDS011;10656;52.200;21.052;2024-02-04T06:07:54;7.57;;;2.40;;
20995;SDS011;10656;52.200;21.052;2024-02-04T06:29:57;5.47;;;2.20;;
20995;SDS011;10656;52.200;21.052;2024-02-04T06:45:42;8.90;;;2.90;;
20995;SDS011;10656;52.200;21.052;2024-02-04T07:10:56;7.37;;;2.30;;
20995;SDS011;10656;52.200;21.052;2024-02-04T07:31:25;8.20;;;2.60;;
20995;SDS011;10656;52.200;21.052;2024-02-04T08:41:55;7.43;;;3.27;;
20995;SDS011;10656;52.200;21.052;2024-02-04T08:57:33;8.27;;;3.07;;
20995;SDS011;10656;52.200;21.052;2024-02-04T09:27:45;6.57;;;2.93;;
20995;SDS011;10656;52.200;21.052;2024-02-04T09:53:18;7.67;;;2.87;;
20995;SDS011;10656;52.200;21.052;2024-02-04T10:13:44;5.57;;;3.30;;
20995;SDS011;10656;52.200;21.052;2024-02-04T10:18:02;12.87;;;3.57;;
20995;SDS011;10656;52.200;21.052;2024-02-04T10:54:17;9.37;;;3.03;;
20995;SDS011;10656;52.200;21.052;2024-02-04T10:58:37;10.17;;;3.77;;
20995;SDS011;10656;52.200;21.052;2024-02-04T11:34:41;10.23;;;3.43;;
20995;SDS011;10656;52.200;21.052;2024-02-04T12:10:12;7.03;;;4.10;;
20995;SDS011;10656;52.200;21.052;2024-02-04T12:40:34;8.23;;;4.47;;
20995;SDS011;10656;52.200;21.052;2024-02-04T13:15:38;13.03;;;4.83;;
20995;SDS011;10656;52.200;21.052;2024-02-04T13:36:08;9.87;;;4.97;;
20995;SDS011;10656;52.200;21.052;2024-02-04T13:51:27;6.70;;;4.30;;
20995;SDS011;10656;52.200;21.052;2024-02-04T14:22:10;8.20;;;4.17;;
20995;SDS011;10656;52.200;21.052;2024-02-04T14:25:21;6.67;;;3.63;;
20995;SDS011;10656;52.200;21.052;2024-02-04T14:57:34;8.17;;;3.73;;
20995;SDS011;10656;52.200;21.052;2024-02-04T15:18:01;7.23;;;3.10;;
20995;SDS011;10656;52.200;21.052;2024-02-04T15:22:19;4.87;;;3.10;;
20995;SDS011;10656;52.200;21.052;2024-02-04T15:43:10;6.20;;;3.50;;
20995;SDS011;10656;52.200;21.052;2024-02-04T15:45:55;6.93;;;3.10;;
20995;SDS011;10656;52.200;21.052;2024-02-04T17:09:32;6.20;;;3.50;;
20995;SDS011;10656;52.200;21.052;2024-02-04T18:25:35;9.90;;;3.00;;
20995;SDS011;10656;52.200;21.052;2024-02-04T18:55:54;3.93;;;2.80;;
20995;SDS011;10656;52.200;21.052;2024-02-04T19:51:18;6.67;;;3.33;;
20995;SDS011;10656;52.200;21.052;2024-02-04T20:21:33;4.27;;;3.00;;
20995;SDS011;10656;52.200;21.052;2024-02-04T20:52:02;4.93;;;3.03;;
20995;SDS011;10656;52.200;21.052;2024-02-04T21:17:38;5.80;;;3.30;;
20995;SDS011;10656;52.200;21.052;2024-02-04T21:37:35;6.63;;;3.67;;
20995;SDS011;10656;52.200;21.052;2024-02-04T22:03:11;7.80;;;3.57;;
20995;SDS011;10656;52.200;21.052;2024-02-04T22:23:20;8.93;;;3.07;;
20995;SDS011;10656;52.200;21.052;2024-02-04T22:58:51;6.53;;;3.07;;
20995;SDS011;10656;52.200;21.052;2024-02-04T23:24:26;7.27;;;3.60;;
20995;SDS011;10656;52.200;21.052;2024-02-04T23:54:13;6.23;;;4.10;;
